Sioux Arrow — WAG6168 — position and weather

sailwx.info

Track history (hours):
 
Tides and Currents Weather Stations Pressure Air Temp Water Temp Dewpoint Dewpoint Depression Visibility Wind Speed Wind Dir Waves Ship Positions

Sioux Arrow

Owner: HARMON, JACK L, PORT ANGELES, WA. More information available from US FCC via Universal Licensing System and Coast Guard Vessel Documentation Center.

Last reported at 2015-Mar-01 20:12 UTC. Time now 2015-Mar-03 04:41 UTC.
Position N 47°60' W 122°13'.

Type: Port tender. MMSI: 366973370.

Date/timePositionNaut miles runAvg speedWind from/ knotsBaromVisibWave heightAir tempDewpointWater temp
2015-Mar-01 20:12N 47°60' W 122°13'0 0.2
2015-Mar-01 19:33N 47°60' W 122°13'1211.7
2015-Mar-01 18:33N 48°06' W 122°28'2310.3
2015-Mar-01 16:20N 48°29' W 122°32'6 0.6
2015-Mar-01 06:28N 48°34' W 122°34'3 1.5
2015-Mar-01 04:30N 48°31' W 122°35'2 1.0
2015-Mar-01 02:30N 48°33' W 122°34'1 0.2
2015-Feb-28 20:31N 48°34' W 122°34'0 0.0
2015-Feb-28 02:33N 48°34' W 122°34'0 0.0
2015-Feb-27 16:24N 48°34' W 122°34'1 0.1
2015-Feb-27 06:25N 48°36' W 122°34'1 1.3
2015-Feb-27 05:34N 48°35' W 122°34'1 0.8
2015-Feb-27 04:26N 48°34' W 122°34'0 0.3
2015-Feb-27 02:29N 48°34' W 122°34'1 0.1
2015-Feb-26 16:33N 48°35' W 122°34'1 0.1
2015-Feb-26 06:28N 48°36' W 122°34'2 1.1
2015-Feb-26 04:30N 48°34' W 122°34'1 0.4
2015-Feb-26 02:29N 48°34' W 122°35'3 1.4
2015-Feb-26 00:33N 48°32' W 122°34'0 0.2
2015-Feb-25 23:07N 48°32' W 122°35'4 7.4
2015-Feb-25 22:33N 48°36' W 122°34'1 0.6
2015-Feb-25 20:32N 48°34' W 122°34'4 2.0
2015-Feb-25 18:30N 48°31' W 122°36'2 2.3
2015-Feb-25 17:26N 48°33' W 122°34'2 1.7
2015-Feb-25 16:32N 48°34' W 122°34'0 0.0
2015-Feb-25 06:32N 48°34' W 122°35'2 1.1
2015-Feb-25 04:33N 48°36' W 122°34'2 1.0
2015-Feb-25 02:25N 48°34' W 122°34'1 0.6
2015-Feb-25 00:28N 48°33' W 122°34'1 0.3
2015-Feb-24 20:31N 48°34' W 122°34'0 0.1
2015-Feb-24 16:25N 48°34' W 122°34'1 0.2
2015-Feb-24 12:30N 48°34' W 122°34'2 0.4
2015-Feb-24 06:33N 48°37' W 122°34'4 1.8
2015-Feb-24 04:30N 48°33' W 122°34'2 0.9
2015-Feb-24 02:33N 48°32' W 122°35'1 0.4
2015-Feb-24 01:08N 48°31' W 122°35'5 7.3
2015-Feb-24 00:25N 48°36' W 122°34'1 0.3
2015-Feb-23 20:33N 48°35' W 122°34'0 0.1
2015-Feb-23 18:34N 48°35' W 122°34'5 4.5
2015-Feb-23 17:33N 48°31' W 122°36'4 3.7
2015-Feb-23 16:33N 48°34' W 122°34'4 3.6
2015-Feb-23 15:34N 48°31' W 122°36'0 0.2
2015-Feb-23 14:33N 48°31' W 122°36'0 0.0
2015-Feb-23 06:14N 48°31' W 122°36'0 0.0
2015-Feb-23 05:33N 48°31' W 122°36'0 0.0
2015-Feb-23 04:33N 48°31' W 122°36'1 0.6
2015-Feb-23 03:33N 48°31' W 122°36'1 0.6
2015-Feb-23 02:33N 48°31' W 122°36'0 0.0
2015-Feb-23 01:34N 48°31' W 122°36'0 0.0
2015-Feb-23 00:33N 48°31' W 122°36'1 0.9
2015-Feb-22 23:33N 48°31' W 122°35'1 0.9
2015-Feb-22 22:33N 48°31' W 122°37'0 0.0
2015-Feb-22 21:33N 48°31' W 122°37'1 0.9
2015-Feb-22 20:33N 48°31' W 122°35'1 0.9
2015-Feb-22 19:33N 48°31' W 122°36'0 0.0
2015-Feb-22 18:33N 48°31' W 122°36'0 0.0
2015-Feb-22 17:33N 48°31' W 122°36'0 0.0
2015-Feb-22 16:33N 48°31' W 122°36'0 0.1
2015-Feb-22 15:33N 48°31' W 122°36'0 0.0
2015-Feb-22 00:33N 48°31' W 122°36'0 0.2
2015-Feb-21 23:33N 48°31' W 122°36'0 0.3
2015-Feb-21 22:33N 48°31' W 122°36'0 0.0
2015-Feb-21 21:33N 48°31' W 122°36'0 0.0
2015-Feb-21 20:33N 48°31' W 122°36'0 0.2
2015-Feb-21 19:33N 48°31' W 122°36'0 0.2
2015-Feb-21 18:33N 48°31' W 122°36'0 0.0
2015-Feb-21 17:33N 48°31' W 122°36'6 5.6
2015-Feb-21 16:33N 48°36' W 122°34'6 5.6
2015-Feb-21 15:33N 48°31' W 122°36'1 0.1
2015-Feb-21 08:33N 48°31' W 122°35'1 1.0
2015-Feb-21 07:33N 48°31' W 122°36'0 0.0
2015-Feb-21 06:33N 48°31' W 122°36'0 0.0
2015-Feb-21 05:33N 48°31' W 122°36'4 4.4
2015-Feb-21 04:33N 48°35' W 122°34'4 4.1
2015-Feb-21 03:33N 48°31' W 122°36'2 2.0
2015-Feb-21 02:33N 48°33' W 122°34'2 2.4
2015-Feb-21 01:33N 48°31' W 122°36'6 5.8
2015-Feb-21 00:33N 48°35' W 122°32'6 5.5
2015-Feb-20 23:34N 48°31' W 122°36'5 5.4
2015-Feb-20 22:33N 48°35' W 122°32'6 5.7
2015-Feb-20 21:33N 48°31' W 122°37'4 4.1
2015-Feb-20 20:33N 48°35' W 122°34'4 4.0
2015-Feb-20 19:33N 48°31' W 122°36'0 0.5
2015-Feb-20 18:33N 48°31' W 122°36'0 0.0
2015-Feb-20 17:33N 48°31' W 122°36'7 6.5
2015-Feb-20 16:32N 48°37' W 122°34'7 6.7
2015-Feb-20 15:33N 48°31' W 122°37'3 0.3
2015-Feb-20 07:33N 48°33' W 122°34'3 2.6
2015-Feb-20 06:33N 48°31' W 122°36'0 0.0
2015-Feb-20 05:33N 48°31' W 122°36'0 0.0
2015-Feb-20 04:33N 48°31' W 122°36'5 5.1
2015-Feb-20 03:33N 48°35' W 122°34'5 4.9
2015-Feb-20 02:33N 48°31' W 122°36'0 0.4
2015-Feb-20 01:33N 48°31' W 122°36'0 0.0
2015-Feb-20 00:33N 48°31' W 122°36'1 0.7
2015-Feb-19 23:33N 48°31' W 122°36'1 0.9
2015-Feb-19 22:33N 48°32' W 122°34'2 1.6
2015-Feb-19 21:33N 48°31' W 122°37'4 4.3
2015-Feb-19 20:33N 48°35' W 122°34'  
Track history (hours):
 
Tides and Currents Weather Stations Pressure Air Temp Water Temp Dewpoint Dewpoint Depression Visibility Wind Speed Wind Dir Waves Ship Positions

Sioux Arrow

Owner: HARMON, JACK L, PORT ANGELES, WA. More information available from US FCC via Universal Licensing System and Coast Guard Vessel Documentation Center.

Last reported at 2015-Mar-01 20:12 UTC. Time now 2015-Mar-03 04:41 UTC.
Position N 47°60' W 122°13'.

Type: Port tender. MMSI: 366973370.

Date/timePositionNaut miles runAvg speedWind from/ knotsBaromVisibWave heightAir tempDewpointWater temp
2015-Mar-01 20:12N 47°60' W 122°13'0 0.2
2015-Mar-01 19:33N 47°60' W 122°13'1211.7
2015-Mar-01 18:33N 48°06' W 122°28'2310.3
2015-Mar-01 16:20N 48°29' W 122°32'6 0.6
2015-Mar-01 06:28N 48°34' W 122°34'3 1.5
2015-Mar-01 04:30N 48°31' W 122°35'2 1.0
2015-Mar-01 02:30N 48°33' W 122°34'1 0.2
2015-Feb-28 20:31N 48°34' W 122°34'0 0.0
2015-Feb-28 02:33N 48°34' W 122°34'0 0.0
2015-Feb-27 16:24N 48°34' W 122°34'1 0.1
2015-Feb-27 06:25N 48°36' W 122°34'1 1.3
2015-Feb-27 05:34N 48°35' W 122°34'1 0.8
2015-Feb-27 04:26N 48°34' W 122°34'0 0.3
2015-Feb-27 02:29N 48°34' W 122°34'1 0.1
2015-Feb-26 16:33N 48°35' W 122°34'1 0.1
2015-Feb-26 06:28N 48°36' W 122°34'2 1.1
2015-Feb-26 04:30N 48°34' W 122°34'1 0.4
2015-Feb-26 02:29N 48°34' W 122°35'3 1.4
2015-Feb-26 00:33N 48°32' W 122°34'0 0.2
2015-Feb-25 23:07N 48°32' W 122°35'4 7.4
2015-Feb-25 22:33N 48°36' W 122°34'1 0.6
2015-Feb-25 20:32N 48°34' W 122°34'4 2.0
2015-Feb-25 18:30N 48°31' W 122°36'2 2.3
2015-Feb-25 17:26N 48°33' W 122°34'2 1.7
2015-Feb-25 16:32N 48°34' W 122°34'0 0.0
2015-Feb-25 06:32N 48°34' W 122°35'2 1.1
2015-Feb-25 04:33N 48°36' W 122°34'2 1.0
2015-Feb-25 02:25N 48°34' W 122°34'1 0.6
2015-Feb-25 00:28N 48°33' W 122°34'1 0.3
2015-Feb-24 20:31N 48°34' W 122°34'0 0.1
2015-Feb-24 16:25N 48°34' W 122°34'1 0.2
2015-Feb-24 12:30N 48°34' W 122°34'2 0.4
2015-Feb-24 06:33N 48°37' W 122°34'4 1.8
2015-Feb-24 04:30N 48°33' W 122°34'2 0.9
2015-Feb-24 02:33N 48°32' W 122°35'1 0.4
2015-Feb-24 01:08N 48°31' W 122°35'5 7.3
2015-Feb-24 00:25N 48°36' W 122°34'1 0.3
2015-Feb-23 20:33N 48°35' W 122°34'0 0.1
2015-Feb-23 18:34N 48°35' W 122°34'5 4.5
2015-Feb-23 17:33N 48°31' W 122°36'4 3.7
2015-Feb-23 16:33N 48°34' W 122°34'4 3.6
2015-Feb-23 15:34N 48°31' W 122°36'0 0.2
2015-Feb-23 14:33N 48°31' W 122°36'0 0.0
2015-Feb-23 06:14N 48°31' W 122°36'0 0.0
2015-Feb-23 05:33N 48°31' W 122°36'0 0.0
2015-Feb-23 04:33N 48°31' W 122°36'1 0.6
2015-Feb-23 03:33N 48°31' W 122°36'1 0.6
2015-Feb-23 02:33N 48°31' W 122°36'0 0.0
2015-Feb-23 01:34N 48°31' W 122°36'0 0.0
2015-Feb-23 00:33N 48°31' W 122°36'1 0.9
2015-Feb-22 23:33N 48°31' W 122°35'1 0.9
2015-Feb-22 22:33N 48°31' W 122°37'0 0.0
2015-Feb-22 21:33N 48°31' W 122°37'1 0.9
2015-Feb-22 20:33N 48°31' W 122°35'1 0.9
2015-Feb-22 19:33N 48°31' W 122°36'0 0.0
2015-Feb-22 18:33N 48°31' W 122°36'0 0.0
2015-Feb-22 17:33N 48°31' W 122°36'0 0.0
2015-Feb-22 16:33N 48°31' W 122°36'0 0.1
2015-Feb-22 15:33N 48°31' W 122°36'0 0.0
2015-Feb-22 00:33N 48°31' W 122°36'0 0.2
2015-Feb-21 23:33N 48°31' W 122°36'0 0.3
2015-Feb-21 22:33N 48°31' W 122°36'0 0.0
2015-Feb-21 21:33N 48°31' W 122°36'0 0.0
2015-Feb-21 20:33N 48°31' W 122°36'0 0.2
2015-Feb-21 19:33N 48°31' W 122°36'0 0.2
2015-Feb-21 18:33N 48°31' W 122°36'0 0.0
2015-Feb-21 17:33N 48°31' W 122°36'6 5.6
2015-Feb-21 16:33N 48°36' W 122°34'6 5.6
2015-Feb-21 15:33N 48°31' W 122°36'1 0.1
2015-Feb-21 08:33N 48°31' W 122°35'1 1.0
2015-Feb-21 07:33N 48°31' W 122°36'0 0.0
2015-Feb-21 06:33N 48°31' W 122°36'0 0.0
2015-Feb-21 05:33N 48°31' W 122°36'4 4.4
2015-Feb-21 04:33N 48°35' W 122°34'4 4.1
2015-Feb-21 03:33N 48°31' W 122°36'2 2.0
2015-Feb-21 02:33N 48°33' W 122°34'2 2.4
2015-Feb-21 01:33N 48°31' W 122°36'6 5.8
2015-Feb-21 00:33N 48°35' W 122°32'6 5.5
2015-Feb-20 23:34N 48°31' W 122°36'5 5.4
2015-Feb-20 22:33N 48°35' W 122°32'6 5.7
2015-Feb-20 21:33N 48°31' W 122°37'4 4.1
2015-Feb-20 20:33N 48°35' W 122°34'4 4.0
2015-Feb-20 19:33N 48°31' W 122°36'0 0.5
2015-Feb-20 18:33N 48°31' W 122°36'0 0.0
2015-Feb-20 17:33N 48°31' W 122°36'7 6.5
2015-Feb-20 16:32N 48°37' W 122°34'7 6.7
2015-Feb-20 15:33N 48°31' W 122°37'3 0.3
2015-Feb-20 07:33N 48°33' W 122°34'3 2.6
2015-Feb-20 06:33N 48°31' W 122°36'0 0.0
2015-Feb-20 05:33N 48°31' W 122°36'0 0.0
2015-Feb-20 04:33N 48°31' W 122°36'5 5.1
2015-Feb-20 03:33N 48°35' W 122°34'5 4.9
2015-Feb-20 02:33N 48°31' W 122°36'0 0.4
2015-Feb-20 01:33N 48°31' W 122°36'0 0.0
2015-Feb-20 00:33N 48°31' W 122°36'1 0.7
2015-Feb-19 23:33N 48°31' W 122°36'1 0.9
2015-Feb-19 22:33N 48°32' W 122°34'2 1.6
2015-Feb-19 21:33N 48°31' W 122°37'4 4.3
2015-Feb-19 20:33N 48°35' W 122°34'  

Dump ship's entire track history